sensor_id;sensor_type;location;lat;lon;timestamp;P1;durP1;ratioP1;P2;durP2;ratioP2
62037;SDS011;47991;42.974;12.082;2023-09-08T00:02:25;8.90;;;5.80;;
62037;SDS011;47991;42.974;12.082;2023-09-08T00:04:54;9.20;;;6.90;;
62037;SDS011;47991;42.974;12.082;2023-09-08T00:07:21;9.10;;;6.40;;
62037;SDS011;47991;42.974;12.082;2023-09-08T00:09:48;10.50;;;6.30;;
62037;SDS011;47991;42.974;12.082;2023-09-08T00:12:15;9.90;;;6.30;;
62037;SDS011;47991;42.974;12.082;2023-09-08T00:14:42;9.10;;;6.60;;
62037;SDS011;47991;42.974;12.082;2023-09-08T00:17:09;9.00;;;6.60;;
62037;SDS011;47991;42.974;12.082;2023-09-08T00:19:36;9.40;;;6.30;;
62037;SDS011;47991;42.974;12.082;2023-09-08T00:22:03;9.70;;;7.10;;
62037;SDS011;47991;42.974;12.082;2023-09-08T00:24:32;10.20;;;6.50;;
62037;SDS011;47991;42.974;12.082;2023-09-08T00:26:59;8.90;;;6.60;;
62037;SDS011;47991;42.974;12.082;2023-09-08T00:29:26;10.30;;;6.60;;
62037;SDS011;47991;42.974;12.082;2023-09-08T00:31:53;9.70;;;6.80;;
62037;SDS011;47991;42.974;12.082;2023-09-08T00:34:20;10.20;;;6.60;;
62037;SDS011;47991;42.974;12.082;2023-09-08T00:36:47;8.50;;;6.40;;
62037;SDS011;47991;42.974;12.082;2023-09-08T00:39:14;9.00;;;7.00;;
62037;SDS011;47991;42.974;12.082;2023-09-08T00:41:40;8.80;;;6.40;;
62037;SDS011;47991;42.974;12.082;2023-09-08T00:44:07;9.80;;;6.50;;
62037;SDS011;47991;42.974;12.082;2023-09-08T00:46:35;10.50;;;6.10;;
62037;SDS011;47991;42.974;12.082;2023-09-08T00:49:02;8.20;;;6.40;;
62037;SDS011;47991;42.974;12.082;2023-09-08T00:51:30;9.10;;;6.70;;
62037;SDS011;47991;42.974;12.082;2023-09-08T00:53:57;8.50;;;5.90;;
62037;SDS011;47991;42.974;12.082;2023-09-08T00:56:24;8.60;;;6.00;;
62037;SDS011;47991;42.974;12.082;2023-09-08T00:58:51;9.00;;;6.50;;
62037;SDS011;47991;42.974;12.082;2023-09-08T01:01:18;9.00;;;6.70;;
62037;SDS011;47991;42.974;12.082;2023-09-08T01:03:46;9.70;;;6.50;;
62037;SDS011;47991;42.974;12.082;2023-09-08T01:06:13;9.10;;;6.30;;
62037;SDS011;47991;42.974;12.082;2023-09-08T01:08:41;10.40;;;7.00;;
62037;SDS011;47991;42.974;12.082;2023-09-08T01:11:10;8.10;;;6.50;;
62037;SDS011;47991;42.974;12.082;2023-09-08T01:13:37;9.20;;;6.50;;
62037;SDS011;47991;42.974;12.082;2023-09-08T01:16:04;10.10;;;7.10;;
62037;SDS011;47991;42.974;12.082;2023-09-08T01:18:31;9.70;;;6.60;;
62037;SDS011;47991;42.974;12.082;2023-09-08T01:21:16;11.10;;;6.90;;
62037;SDS011;47991;42.974;12.082;2023-09-08T01:27:33;11.00;;;7.10;;
62037;SDS011;47991;42.974;12.082;2023-09-08T01:30:02;9.60;;;6.40;;
62037;SDS011;47991;42.974;12.082;2023-09-08T01:32:32;9.20;;;6.90;;
62037;SDS011;47991;42.974;12.082;2023-09-08T01:34:59;8.20;;;6.10;;
62037;SDS011;47991;42.974;12.082;2023-09-08T01:37:27;10.20;;;6.30;;
62037;SDS011;47991;42.974;12.082;2023-09-08T01:39:54;8.90;;;6.80;;
62037;SDS011;47991;42.974;12.082;2023-09-08T01:42:20;9.90;;;6.20;;
62037;SDS011;47991;42.974;12.082;2023-09-08T01:44:47;9.60;;;6.60;;
62037;SDS011;47991;42.974;12.082;2023-09-08T01:47:15;8.60;;;6.60;;
62037;SDS011;47991;42.974;12.082;2023-09-08T01:49:42;10.10;;;6.90;;
62037;SDS011;47991;42.974;12.082;2023-09-08T01:52:09;10.30;;;6.20;;
62037;SDS011;47991;42.974;12.082;2023-09-08T01:54:36;8.50;;;6.30;;
62037;SDS011;47991;42.974;12.082;2023-09-08T01:57:03;9.70;;;6.30;;
62037;SDS011;47991;42.974;12.082;2023-09-08T01:59:30;7.90;;;6.10;;
62037;SDS011;47991;42.974;12.082;2023-09-08T02:01:57;8.90;;;6.30;;
62037;SDS011;47991;42.974;12.082;2023-09-08T02:04:23;9.00;;;6.40;;
62037;SDS011;47991;42.974;12.082;2023-09-08T02:06:51;9.90;;;6.60;;
62037;SDS011;47991;42.974;12.082;2023-09-08T02:09:17;10.80;;;6.80;;
62037;SDS011;47991;42.974;12.082;2023-09-08T02:11:44;8.70;;;6.50;;
62037;SDS011;47991;42.974;12.082;2023-09-08T02:14:11;10.00;;;6.50;;
62037;SDS011;47991;42.974;12.082;2023-09-08T02:16:37;8.40;;;6.40;;
62037;SDS011;47991;42.974;12.082;2023-09-08T02:19:04;9.00;;;6.20;;
62037;SDS011;47991;42.974;12.082;2023-09-08T02:21:31;9.70;;;7.10;;
62037;SDS011;47991;42.974;12.082;2023-09-08T02:23:58;9.10;;;6.70;;
62037;SDS011;47991;42.974;12.082;2023-09-08T02:26:25;9.10;;;6.90;;
62037;SDS011;47991;42.974;12.082;2023-09-08T02:28:54;9.70;;;6.40;;
62037;SDS011;47991;42.974;12.082;2023-09-08T02:31:21;9.00;;;6.70;;
62037;SDS011;47991;42.974;12.082;2023-09-08T02:33:47;8.30;;;6.40;;
62037;SDS011;47991;42.974;12.082;2023-09-08T02:36:14;9.50;;;6.30;;
62037;SDS011;47991;42.974;12.082;2023-09-08T02:38:41;9.30;;;6.40;;
62037;SDS011;47991;42.974;12.082;2023-09-08T02:41:08;9.50;;;6.60;;
62037;SDS011;47991;42.974;12.082;2023-09-08T02:43:34;8.80;;;6.30;;
62037;SDS011;47991;42.974;12.082;2023-09-08T02:46:01;9.80;;;6.90;;
62037;SDS011;47991;42.974;12.082;2023-09-08T02:48:28;11.20;;;7.20;;
62037;SDS011;47991;42.974;12.082;2023-09-08T02:50:54;8.70;;;6.60;;
62037;SDS011;47991;42.974;12.082;2023-09-08T02:53:22;10.70;;;6.40;;
62037;SDS011;47991;42.974;12.082;2023-09-08T02:55:49;8.80;;;6.60;;
62037;SDS011;47991;42.974;12.082;2023-09-08T02:58:16;8.90;;;6.50;;
62037;SDS011;47991;42.974;12.082;2023-09-08T03:00:44;9.20;;;6.40;;
62037;SDS011;47991;42.974;12.082;2023-09-08T03:03:11;8.30;;;6.10;;
62037;SDS011;47991;42.974;12.082;2023-09-08T03:05:38;9.10;;;6.50;;
62037;SDS011;47991;42.974;12.082;2023-09-08T03:08:05;10.70;;;7.10;;
62037;SDS011;47991;42.974;12.082;2023-09-08T03:10:32;8.30;;;6.70;;
62037;SDS011;47991;42.974;12.082;2023-09-08T03:13:03;10.30;;;7.10;;
62037;SDS011;47991;42.974;12.082;2023-09-08T03:15:31;11.60;;;7.10;;
62037;SDS011;47991;42.974;12.082;2023-09-08T03:17:58;9.70;;;6.30;;
62037;SDS011;47991;42.974;12.082;2023-09-08T03:20:25;16.70;;;6.30;;
62037;SDS011;47991;42.974;12.082;2023-09-08T03:22:52;9.50;;;7.00;;
62037;SDS011;47991;42.974;12.082;2023-09-08T03:25:19;9.50;;;6.60;;
62037;SDS011;47991;42.974;12.082;2023-09-08T03:27:46;9.70;;;6.30;;
62037;SDS011;47991;42.974;12.082;2023-09-08T03:30:13;9.60;;;6.40;;
62037;SDS011;47991;42.974;12.082;2023-09-08T03:32:40;12.40;;;7.00;;
62037;SDS011;47991;42.974;12.082;2023-09-08T03:35:07;9.90;;;6.60;;
62037;SDS011;47991;42.974;12.082;2023-09-08T03:37:35;10.40;;;6.50;;
62037;SDS011;47991;42.974;12.082;2023-09-08T03:40:02;9.80;;;6.40;;
62037;SDS011;47991;42.974;12.082;2023-09-08T03:42:33;11.90;;;6.40;;
62037;SDS011;47991;42.974;12.082;2023-09-08T03:45:01;10.50;;;6.60;;
62037;SDS011;47991;42.974;12.082;2023-09-08T03:47:28;10.90;;;6.60;;
62037;SDS011;47991;42.974;12.082;2023-09-08T03:49:55;11.20;;;6.60;;
62037;SDS011;47991;42.974;12.082;2023-09-08T03:52:21;11.60;;;6.70;;
62037;SDS011;47991;42.974;12.082;2023-09-08T03:54:49;12.50;;;6.20;;
62037;SDS011;47991;42.974;12.082;2023-09-08T03:57:16;11.40;;;6.20;;
62037;SDS011;47991;42.974;12.082;2023-09-08T03:59:43;10.90;;;6.20;;
62037;SDS011;47991;42.974;12.082;2023-09-08T04:02:10;11.90;;;6.60;;
62037;SDS011;47991;42.974;12.082;2023-09-08T04:04:37;9.30;;;6.60;;
62037;SDS011;47991;42.974;12.082;2023-09-08T04:07:04;10.40;;;6.70;;
62037;SDS011;47991;42.974;12.082;2023-09-08T04:09:30;9.50;;;7.20;;
62037;SDS011;47991;42.974;12.082;2023-09-08T04:11:58;10.40;;;6.20;;
62037;SDS011;47991;42.974;12.082;2023-09-08T04:14:25;11.40;;;6.60;;
62037;SDS011;47991;42.974;12.082;2023-09-08T04:16:53;8.00;;;5.90;;
62037;SDS011;47991;42.974;12.082;2023-09-08T04:19:20;9.00;;;5.70;;
62037;SDS011;47991;42.974;12.082;2023-09-08T04:21:47;8.90;;;5.90;;
62037;SDS011;47991;42.974;12.082;2023-09-08T04:24:14;9.20;;;6.70;;
62037;SDS011;47991;42.974;12.082;2023-09-08T04:26:41;9.30;;;6.40;;
62037;SDS011;47991;42.974;12.082;2023-09-08T04:29:07;9.20;;;6.60;;
62037;SDS011;47991;42.974;12.082;2023-09-08T04:31:34;10.70;;;7.10;;
62037;SDS011;47991;42.974;12.082;2023-09-08T04:34:01;11.00;;;6.00;;
62037;SDS011;47991;42.974;12.082;2023-09-08T04:36:28;8.70;;;6.70;;
62037;SDS011;47991;42.974;12.082;2023-09-08T04:38:56;9.70;;;7.10;;
62037;SDS011;47991;42.974;12.082;2023-09-08T04:41:23;9.80;;;6.80;;
62037;SDS011;47991;42.974;12.082;2023-09-08T04:43:50;9.30;;;6.30;;
62037;SDS011;47991;42.974;12.082;2023-09-08T04:46:17;9.40;;;6.70;;
62037;SDS011;47991;42.974;12.082;2023-09-08T04:48:44;10.20;;;6.50;;
62037;SDS011;47991;42.974;12.082;2023-09-08T04:51:11;11.50;;;6.70;;
62037;SDS011;47991;42.974;12.082;2023-09-08T04:53:38;8.70;;;6.10;;
62037;SDS011;47991;42.974;12.082;2023-09-08T04:56:04;10.00;;;6.70;;
62037;SDS011;47991;42.974;12.082;2023-09-08T04:58:31;10.30;;;6.80;;
62037;SDS011;47991;42.974;12.082;2023-09-08T05:00:58;9.30;;;6.40;;
62037;SDS011;47991;42.974;12.082;2023-09-08T05:03:25;30.00;;;7.90;;
62037;SDS011;47991;42.974;12.082;2023-09-08T05:05:52;28.20;;;7.20;;
62037;SDS011;47991;42.974;12.082;2023-09-08T05:08:19;15.80;;;7.60;;
62037;SDS011;47991;42.974;12.082;2023-09-08T05:10:46;17.10;;;7.30;;
62037;SDS011;47991;42.974;12.082;2023-09-08T05:13:13;10.30;;;6.30;;
62037;SDS011;47991;42.974;12.082;2023-09-08T05:15:39;9.50;;;6.00;;
62037;SDS011;47991;42.974;12.082;2023-09-08T05:18:09;8.70;;;5.50;;
62037;SDS011;47991;42.974;12.082;2023-09-08T05:20:35;8.40;;;5.50;;
62037;SDS011;47991;42.974;12.082;2023-09-08T05:23:02;12.00;;;5.90;;
62037;SDS011;47991;42.974;12.082;2023-09-08T05:25:29;8.30;;;5.40;;
62037;SDS011;47991;42.974;12.082;2023-09-08T05:27:56;8.60;;;5.30;;
62037;SDS011;47991;42.974;12.082;2023-09-08T05:30:23;10.90;;;5.40;;
62037;SDS011;47991;42.974;12.082;2023-09-08T05:32:50;8.70;;;5.50;;
62037;SDS011;47991;42.974;12.082;2023-09-08T05:35:17;7.80;;;5.20;;
62037;SDS011;47991;42.974;12.082;2023-09-08T05:37:43;10.70;;;5.30;;
62037;SDS011;47991;42.974;12.082;2023-09-08T05:40:10;7.80;;;5.00;;
62037;SDS011;47991;42.974;12.082;2023-09-08T05:42:37;8.70;;;5.00;;
62037;SDS011;47991;42.974;12.082;2023-09-08T05:45:04;8.60;;;5.30;;
62037;SDS011;47991;42.974;12.082;2023-09-08T05:47:31;9.40;;;5.00;;
62037;SDS011;47991;42.974;12.082;2023-09-08T05:49:58;9.90;;;5.30;;
62037;SDS011;47991;42.974;12.082;2023-09-08T05:52:25;8.30;;;5.20;;
62037;SDS011;47991;42.974;12.082;2023-09-08T05:54:54;8.60;;;4.50;;
62037;SDS011;47991;42.974;12.082;2023-09-08T05:57:21;7.60;;;4.60;;
62037;SDS011;47991;42.974;12.082;2023-09-08T05:59:48;6.70;;;4.40;;
62037;SDS011;47991;42.974;12.082;2023-09-08T06:02:14;12.80;;;4.90;;
62037;SDS011;47991;42.974;12.082;2023-09-08T06:04:41;9.20;;;5.00;;
62037;SDS011;47991;42.974;12.082;2023-09-08T06:07:08;11.70;;;4.90;;
62037;SDS011;47991;42.974;12.082;2023-09-08T06:09:35;9.20;;;4.80;;
62037;SDS011;47991;42.974;12.082;2023-09-08T06:12:02;6.90;;;4.40;;
62037;SDS011;47991;42.974;12.082;2023-09-08T06:14:29;8.30;;;4.50;;
62037;SDS011;47991;42.974;12.082;2023-09-08T06:16:56;8.40;;;4.80;;
62037;SDS011;47991;42.974;12.082;2023-09-08T06:19:23;9.40;;;5.50;;
62037;SDS011;47991;42.974;12.082;2023-09-08T06:21:49;17.10;;;5.90;;
62037;SDS011;47991;42.974;12.082;2023-09-08T06:24:16;10.20;;;4.90;;
62037;SDS011;47991;42.974;12.082;2023-09-08T06:26:43;9.40;;;5.20;;
62037;SDS011;47991;42.974;12.082;2023-09-08T06:29:10;8.10;;;4.90;;
62037;SDS011;47991;42.974;12.082;2023-09-08T06:31:37;10.10;;;5.10;;
62037;SDS011;47991;42.974;12.082;2023-09-08T06:34:03;8.70;;;4.80;;
62037;SDS011;47991;42.974;12.082;2023-09-08T06:36:30;9.90;;;4.90;;
62037;SDS011;47991;42.974;12.082;2023-09-08T06:38:57;9.60;;;5.00;;
62037;SDS011;47991;42.974;12.082;2023-09-08T06:41:24;9.10;;;4.60;;
62037;SDS011;47991;42.974;12.082;2023-09-08T06:43:54;7.40;;;4.70;;
62037;SDS011;47991;42.974;12.082;2023-09-08T06:46:21;7.00;;;4.50;;
62037;SDS011;47991;42.974;12.082;2023-09-08T06:48:47;8.60;;;5.10;;
62037;SDS011;47991;42.974;12.082;2023-09-08T06:51:14;9.50;;;5.30;;
62037;SDS011;47991;42.974;12.082;2023-09-08T06:53:42;8.60;;;4.90;;
62037;SDS011;47991;42.974;12.082;2023-09-08T06:56:10;7.50;;;5.40;;
62037;SDS011;47991;42.974;12.082;2023-09-08T06:58:36;8.30;;;5.20;;
62037;SDS011;47991;42.974;12.082;2023-09-08T07:01:03;8.70;;;5.00;;
62037;SDS011;47991;42.974;12.082;2023-09-08T07:03:30;8.50;;;5.60;;
62037;SDS011;47991;42.974;12.082;2023-09-08T07:06:03;9.10;;;5.30;;
62037;SDS011;47991;42.974;12.082;2023-09-08T07:08:30;8.30;;;5.30;;
62037;SDS011;47991;42.974;12.082;2023-09-08T07:10:57;10.50;;;6.00;;
62037;SDS011;47991;42.974;12.082;2023-09-08T07:13:23;10.20;;;5.40;;
62037;SDS011;47991;42.974;12.082;2023-09-08T07:15:50;10.40;;;5.60;;
62037;SDS011;47991;42.974;12.082;2023-09-08T07:18:17;10.20;;;6.00;;
62037;SDS011;47991;42.974;12.082;2023-09-08T07:20:47;11.20;;;6.10;;
62037;SDS011;47991;42.974;12.082;2023-09-08T07:23:18;11.50;;;6.00;;
62037;SDS011;47991;42.974;12.082;2023-09-08T07:25:47;9.70;;;6.10;;
62037;SDS011;47991;42.974;12.082;2023-09-08T07:28:15;10.00;;;6.00;;
62037;SDS011;47991;42.974;12.082;2023-09-08T07:30:43;9.10;;;5.50;;
62037;SDS011;47991;42.974;12.082;2023-09-08T07:33:10;9.00;;;5.50;;
62037;SDS011;47991;42.974;12.082;2023-09-08T07:35:37;9.60;;;5.80;;
62037;SDS011;47991;42.974;12.082;2023-09-08T07:38:05;9.80;;;5.60;;
62037;SDS011;47991;42.974;12.082;2023-09-08T07:40:34;12.30;;;6.30;;
62037;SDS011;47991;42.974;12.082;2023-09-08T07:43:02;8.80;;;6.00;;
62037;SDS011;47991;42.974;12.082;2023-09-08T07:45:28;11.40;;;5.90;;
62037;SDS011;47991;42.974;12.082;2023-09-08T07:47:55;12.20;;;5.80;;
62037;SDS011;47991;42.974;12.082;2023-09-08T07:50:23;12.00;;;6.10;;
62037;SDS011;47991;42.974;12.082;2023-09-08T07:52:52;9.70;;;5.50;;
62037;SDS011;47991;42.974;12.082;2023-09-08T07:55:20;10.90;;;6.30;;
62037;SDS011;47991;42.974;12.082;2023-09-08T07:57:53;11.80;;;6.30;;
62037;SDS011;47991;42.974;12.082;2023-09-08T08:00:21;11.00;;;6.50;;
62037;SDS011;47991;42.974;12.082;2023-09-08T08:02:53;11.00;;;5.70;;
62037;SDS011;47991;42.974;12.082;2023-09-08T08:05:22;10.60;;;6.10;;
62037;SDS011;47991;42.974;12.082;2023-09-08T08:07:50;10.20;;;5.70;;
62037;SDS011;47991;42.974;12.082;2023-09-08T08:10:17;9.60;;;6.20;;
62037;SDS011;47991;42.974;12.082;2023-09-08T08:12:44;13.70;;;6.50;;
62037;SDS011;47991;42.974;12.082;2023-09-08T08:15:11;8.80;;;6.00;;
62037;SDS011;47991;42.974;12.082;2023-09-08T08:17:38;13.10;;;6.70;;
62037;SDS011;47991;42.974;12.082;2023-09-08T08:20:07;12.00;;;6.50;;
62037;SDS011;47991;42.974;12.082;2023-09-08T08:22:36;10.10;;;5.80;;
62037;SDS011;47991;42.974;12.082;2023-09-08T08:25:04;9.80;;;6.30;;
62037;SDS011;47991;42.974;12.082;2023-09-08T08:27:31;9.20;;;6.10;;
62037;SDS011;47991;42.974;12.082;2023-09-08T08:29:59;10.10;;;5.80;;
62037;SDS011;47991;42.974;12.082;2023-09-08T08:32:27;12.90;;;6.00;;
62037;SDS011;47991;42.974;12.082;2023-09-08T08:34:55;9.90;;;5.70;;
62037;SDS011;47991;42.974;12.082;2023-09-08T08:37:23;9.00;;;5.50;;
62037;SDS011;47991;42.974;12.082;2023-09-08T08:39:50;10.20;;;5.70;;
62037;SDS011;47991;42.974;12.082;2023-09-08T08:42:16;10.50;;;6.20;;
62037;SDS011;47991;42.974;12.082;2023-09-08T08:44:43;11.50;;;6.10;;
62037;SDS011;47991;42.974;12.082;2023-09-08T08:47:12;10.70;;;5.80;;
62037;SDS011;47991;42.974;12.082;2023-09-08T08:49:40;11.30;;;5.80;;
62037;SDS011;47991;42.974;12.082;2023-09-08T08:52:13;10.20;;;6.00;;
62037;SDS011;47991;42.974;12.082;2023-09-08T08:54:41;12.80;;;6.10;;
62037;SDS011;47991;42.974;12.082;2023-09-08T08:57:09;10.30;;;6.30;;
62037;SDS011;47991;42.974;12.082;2023-09-08T08:59:37;9.50;;;6.20;;
62037;SDS011;47991;42.974;12.082;2023-09-08T09:02:05;10.50;;;6.10;;
62037;SDS011;47991;42.974;12.082;2023-09-08T09:04:32;8.60;;;5.60;;
62037;SDS011;47991;42.974;12.082;2023-09-08T09:06:59;8.80;;;5.70;;
62037;SDS011;47991;42.974;12.082;2023-09-08T09:09:26;10.80;;;5.80;;
62037;SDS011;47991;42.974;12.082;2023-09-08T09:11:55;10.60;;;6.00;;
62037;SDS011;47991;42.974;12.082;2023-09-08T09:14:22;10.10;;;5.70;;
62037;SDS011;47991;42.974;12.082;2023-09-08T09:16:49;11.00;;;6.30;;
62037;SDS011;47991;42.974;12.082;2023-09-08T09:19:20;9.40;;;6.00;;
62037;SDS011;47991;42.974;12.082;2023-09-08T09:21:52;11.30;;;6.20;;
62037;SDS011;47991;42.974;12.082;2023-09-08T09:27:00;9.50;;;6.20;;
62037;SDS011;47991;42.974;12.082;2023-09-08T09:29:28;9.60;;;5.70;;
62037;SDS011;47991;42.974;12.082;2023-09-08T09:31:56;10.20;;;5.60;;
62037;SDS011;47991;42.974;12.082;2023-09-08T09:34:25;9.20;;;5.80;;
62037;SDS011;47991;42.974;12.082;2023-09-08T09:36:52;8.60;;;5.60;;
62037;SDS011;47991;42.974;12.082;2023-09-08T09:39:19;8.30;;;5.10;;
62037;SDS011;47991;42.974;12.082;2023-09-08T09:41:48;8.50;;;5.70;;
62037;SDS011;47991;42.974;12.082;2023-09-08T09:44:15;10.60;;;5.50;;
62037;SDS011;47991;42.974;12.082;2023-09-08T09:46:43;8.60;;;5.40;;
62037;SDS011;47991;42.974;12.082;2023-09-08T09:49:13;12.20;;;6.00;;
62037;SDS011;47991;42.974;12.082;2023-09-08T09:51:44;9.20;;;5.80;;
62037;SDS011;47991;42.974;12.082;2023-09-08T09:54:15;8.40;;;5.50;;
62037;SDS011;47991;42.974;12.082;2023-09-08T09:56:43;10.40;;;5.70;;
62037;SDS011;47991;42.974;12.082;2023-09-08T09:59:12;9.10;;;5.70;;
62037;SDS011;47991;42.974;12.082;2023-09-08T10:01:40;9.10;;;5.80;;
62037;SDS011;47991;42.974;12.082;2023-09-08T10:04:08;12.10;;;5.60;;
62037;SDS011;47991;42.974;12.082;2023-09-08T10:06:37;8.80;;;5.50;;
62037;SDS011;47991;42.974;12.082;2023-09-08T10:09:06;9.60;;;5.70;;
62037;SDS011;47991;42.974;12.082;2023-09-08T10:11:42;10.30;;;5.40;;
62037;SDS011;47991;42.974;12.082;2023-09-08T10:14:14;8.70;;;5.30;;
62037;SDS011;47991;42.974;12.082;2023-09-08T10:16:43;7.90;;;5.30;;
62037;SDS011;47991;42.974;12.082;2023-09-08T10:19:16;9.90;;;5.80;;
62037;SDS011;47991;42.974;12.082;2023-09-08T10:21:46;8.30;;;5.20;;
62037;SDS011;47991;42.974;12.082;2023-09-08T10:24:15;10.10;;;5.70;;
62037;SDS011;47991;42.974;12.082;2023-09-08T10:27:10;9.90;;;6.10;;
62037;SDS011;47991;42.974;12.082;2023-09-08T10:29:38;7.60;;;4.40;;
62037;SDS011;47991;42.974;12.082;2023-09-08T10:32:07;8.70;;;5.60;;
62037;SDS011;47991;42.974;12.082;2023-09-08T10:34:36;10.40;;;5.60;;
62037;SDS011;47991;42.974;12.082;2023-09-08T10:37:25;9.80;;;5.80;;
62037;SDS011;47991;42.974;12.082;2023-09-08T10:39:56;8.70;;;5.90;;
62037;SDS011;47991;42.974;12.082;2023-09-08T10:42:43;8.40;;;5.60;;
62037;SDS011;47991;42.974;12.082;2023-09-08T10:45:17;12.60;;;5.60;;
62037;SDS011;47991;42.974;12.082;2023-09-08T10:50:18;9.00;;;5.70;;
62037;SDS011;47991;42.974;12.082;2023-09-08T10:53:03;10.20;;;5.40;;
62037;SDS011;47991;42.974;12.082;2023-09-08T10:55:50;11.10;;;5.90;;
62037;SDS011;47991;42.974;12.082;2023-09-08T10:58:20;10.80;;;5.50;;
62037;SDS011;47991;42.974;12.082;2023-09-08T11:00:58;10.80;;;5.00;;
62037;SDS011;47991;42.974;12.082;2023-09-08T11:03:28;10.50;;;5.50;;
62037;SDS011;47991;42.974;12.082;2023-09-08T11:06:10;9.30;;;5.60;;
62037;SDS011;47991;42.974;12.082;2023-09-08T11:08:40;9.00;;;5.50;;
62037;SDS011;47991;42.974;12.082;2023-09-08T11:11:13;9.10;;;6.20;;
62037;SDS011;47991;42.974;12.082;2023-09-08T11:13:44;9.00;;;5.30;;
62037;SDS011;47991;42.974;12.082;2023-09-08T11:16:14;9.00;;;5.50;;
62037;SDS011;47991;42.974;12.082;2023-09-08T11:18:42;7.70;;;5.20;;
62037;SDS011;47991;42.974;12.082;2023-09-08T11:21:09;12.90;;;5.90;;
62037;SDS011;47991;42.974;12.082;2023-09-08T11:23:37;7.60;;;4.90;;
62037;SDS011;47991;42.974;12.082;2023-09-08T11:26:04;7.20;;;5.20;;
62037;SDS011;47991;42.974;12.082;2023-09-08T11:28:33;8.30;;;5.00;;
62037;SDS011;47991;42.974;12.082;2023-09-08T11:31:01;8.30;;;5.60;;
62037;SDS011;47991;42.974;12.082;2023-09-08T11:33:33;9.20;;;5.80;;
62037;SDS011;47991;42.974;12.082;2023-09-08T11:36:13;8.70;;;5.80;;
62037;SDS011;47991;42.974;12.082;2023-09-08T11:38:59;8.30;;;5.00;;
62037;SDS011;47991;42.974;12.082;2023-09-08T11:41:26;9.00;;;5.30;;
62037;SDS011;47991;42.974;12.082;2023-09-08T11:43:54;8.10;;;4.70;;
62037;SDS011;47991;42.974;12.082;2023-09-08T11:46:21;9.70;;;5.70;;
62037;SDS011;47991;42.974;12.082;2023-09-08T11:48:48;8.70;;;5.20;;
62037;SDS011;47991;42.974;12.082;2023-09-08T11:51:15;7.60;;;5.30;;
62037;SDS011;47991;42.974;12.082;2023-09-08T11:53:42;9.40;;;5.90;;
62037;SDS011;47991;42.974;12.082;2023-09-08T11:56:09;10.60;;;6.20;;
62037;SDS011;47991;42.974;12.082;2023-09-08T11:58:36;7.40;;;5.00;;
62037;SDS011;47991;42.974;12.082;2023-09-08T12:01:03;8.70;;;5.40;;
62037;SDS011;47991;42.974;12.082;2023-09-08T12:03:31;9.50;;;5.60;;
62037;SDS011;47991;42.974;12.082;2023-09-08T12:05:58;9.20;;;5.60;;
62037;SDS011;47991;42.974;12.082;2023-09-08T12:08:26;9.00;;;5.90;;
62037;SDS011;47991;42.974;12.082;2023-09-08T12:10:53;9.20;;;5.50;;
62037;SDS011;47991;42.974;12.082;2023-09-08T12:13:21;8.10;;;5.60;;
62037;SDS011;47991;42.974;12.082;2023-09-08T12:15:51;9.20;;;5.30;;
62037;SDS011;47991;42.974;12.082;2023-09-08T12:18:18;8.00;;;5.60;;
62037;SDS011;47991;42.974;12.082;2023-09-08T12:20:45;10.90;;;6.20;;
62037;SDS011;47991;42.974;12.082;2023-09-08T12:23:19;9.00;;;5.00;;
62037;SDS011;47991;42.974;12.082;2023-09-08T12:25:48;9.40;;;5.30;;
62037;SDS011;47991;42.974;12.082;2023-09-08T12:28:17;9.20;;;5.60;;
62037;SDS011;47991;42.974;12.082;2023-09-08T12:30:45;7.50;;;5.20;;
62037;SDS011;47991;42.974;12.082;2023-09-08T12:33:13;9.00;;;5.40;;
62037;SDS011;47991;42.974;12.082;2023-09-08T12:35:46;8.80;;;6.00;;
62037;SDS011;47991;42.974;12.082;2023-09-08T12:38:17;8.60;;;5.30;;
62037;SDS011;47991;42.974;12.082;2023-09-08T12:40:44;11.10;;;5.30;;
62037;SDS011;47991;42.974;12.082;2023-09-08T12:43:11;7.80;;;5.60;;
62037;SDS011;47991;42.974;12.082;2023-09-08T12:45:38;8.20;;;4.90;;
62037;SDS011;47991;42.974;12.082;2023-09-08T12:48:05;10.50;;;5.70;;
62037;SDS011;47991;42.974;12.082;2023-09-08T12:50:33;9.00;;;5.30;;
62037;SDS011;47991;42.974;12.082;2023-09-08T12:52:59;12.20;;;5.40;;
62037;SDS011;47991;42.974;12.082;2023-09-08T12:55:26;9.40;;;5.40;;
62037;SDS011;47991;42.974;12.082;2023-09-08T12:57:53;24.10;;;6.10;;
62037;SDS011;47991;42.974;12.082;2023-09-08T13:00:24;7.60;;;5.10;;
62037;SDS011;47991;42.974;12.082;2023-09-08T13:02:52;11.30;;;5.90;;
62037;SDS011;47991;42.974;12.082;2023-09-08T13:05:19;12.00;;;5.90;;
62037;SDS011;47991;42.974;12.082;2023-09-08T13:07:46;8.40;;;5.20;;
62037;SDS011;47991;42.974;12.082;2023-09-08T13:10:13;8.30;;;5.10;;
62037;SDS011;47991;42.974;12.082;2023-09-08T13:12:41;9.00;;;5.40;;
62037;SDS011;47991;42.974;12.082;2023-09-08T13:15:09;9.60;;;5.60;;
62037;SDS011;47991;42.974;12.082;2023-09-08T13:17:36;8.70;;;5.40;;
62037;SDS011;47991;42.974;12.082;2023-09-08T13:20:03;9.50;;;5.30;;
62037;SDS011;47991;42.974;12.082;2023-09-08T13:22:30;10.10;;;5.10;;
62037;SDS011;47991;42.974;12.082;2023-09-08T13:24:57;8.20;;;4.90;;
62037;SDS011;47991;42.974;12.082;2023-09-08T13:27:30;8.60;;;5.80;;
62037;SDS011;47991;42.974;12.082;2023-09-08T13:30:10;9.00;;;5.00;;
62037;SDS011;47991;42.974;12.082;2023-09-08T13:32:38;10.10;;;5.30;;
62037;SDS011;47991;42.974;12.082;2023-09-08T13:35:06;9.20;;;5.30;;
62037;SDS011;47991;42.974;12.082;2023-09-08T13:37:33;7.40;;;4.60;;
62037;SDS011;47991;42.974;12.082;2023-09-08T13:40:01;8.60;;;5.50;;
62037;SDS011;47991;42.974;12.082;2023-09-08T13:44:57;10.70;;;5.90;;
62037;SDS011;47991;42.974;12.082;2023-09-08T13:47:24;8.70;;;5.30;;
62037;SDS011;47991;42.974;12.082;2023-09-08T13:49:51;8.30;;;5.30;;
62037;SDS011;47991;42.974;12.082;2023-09-08T13:52:18;10.80;;;5.70;;
62037;SDS011;47991;42.974;12.082;2023-09-08T13:54:45;8.70;;;5.30;;
62037;SDS011;47991;42.974;12.082;2023-09-08T13:57:12;8.30;;;5.40;;
62037;SDS011;47991;42.974;12.082;2023-09-08T13:59:39;8.00;;;5.40;;
62037;SDS011;47991;42.974;12.082;2023-09-08T14:02:06;8.50;;;5.50;;
62037;SDS011;47991;42.974;12.082;2023-09-08T14:04:32;8.40;;;5.50;;
62037;SDS011;47991;42.974;12.082;2023-09-08T14:06:59;6.90;;;4.90;;
62037;SDS011;47991;42.974;12.082;2023-09-08T14:09:26;10.90;;;6.00;;
62037;SDS011;47991;42.974;12.082;2023-09-08T14:11:53;9.20;;;5.50;;
62037;SDS011;47991;42.974;12.082;2023-09-08T14:14:20;9.30;;;5.50;;
62037;SDS011;47991;42.974;12.082;2023-09-08T14:16:48;9.80;;;5.20;;
62037;SDS011;47991;42.974;12.082;2023-09-08T14:19:15;10.10;;;6.00;;
62037;SDS011;47991;42.974;12.082;2023-09-08T14:21:42;9.90;;;5.70;;
62037;SDS011;47991;42.974;12.082;2023-09-08T14:24:08;8.50;;;5.20;;
62037;SDS011;47991;42.974;12.082;2023-09-08T14:26:35;8.60;;;5.30;;
62037;SDS011;47991;42.974;12.082;2023-09-08T14:29:02;9.20;;;4.90;;
62037;SDS011;47991;42.974;12.082;2023-09-08T14:31:30;9.90;;;5.40;;
62037;SDS011;47991;42.974;12.082;2023-09-08T14:33:57;8.40;;;5.30;;
62037;SDS011;47991;42.974;12.082;2023-09-08T14:36:24;9.50;;;5.40;;
62037;SDS011;47991;42.974;12.082;2023-09-08T14:38:51;10.30;;;5.50;;
62037;SDS011;47991;42.974;12.082;2023-09-08T14:41:18;10.80;;;6.30;;
62037;SDS011;47991;42.974;12.082;2023-09-08T14:43:45;10.20;;;6.10;;
62037;SDS011;47991;42.974;12.082;2023-09-08T14:46:11;8.20;;;6.00;;
62037;SDS011;47991;42.974;12.082;2023-09-08T14:48:38;9.40;;;6.00;;